^^
Station Historical Data
Daily Summary for Nil La, TWC- Units:  Both    English   Metric
« Previous Day
Next Day »
Daily Weekly Monthly Yearly Custom
  High: Low: Average:
Temperature: TemperatureC °F /  -17.8 °C 1.6 °F /  -16.9 °C 4.9 °F /  -15.1 °C
Dew Point: DewpointC °F /  -17.8 °C 0.6 °F /  -17.4 °C 3.2 °F /  -16 °C
Humidity: Humidity% 72% 88%
Wind Speed: WindSpeedKMHmph /  0km/h - 0.3mph /  0.5km/h
Wind Gust: WindSpeedGustKMHmph /  0km/h - -
Wind- - WNW
Pressure: PressurehPa in /  0 hPa 1016.5 in /  34418.7 hPa -
Precipitation: 0.2 in /  5.08 mm    
Historical Graphs
 
 
Tabular Data for Nil La, TWC-
Time Temperature Dew Point Pressure Wind Wind Speed Wind Gust Humidity Rainfall Rate (Hourly) solar Conditions
TemperatureC °F /  -17.8 °C DewpointC °F /  -17.8 °C PressurehPain /  0hPa Calm     Humidity% HourlyPrecipMMin /  0mm SoftwareType W/m2 Conditions
00:04 4.4 °F /  -15.3 °C 3.3 °F /  -15.9 °C 1016.5in /  34418.7hPa Calm     93% 0.0in /  0mm WeatherDisplay:10.37 W/m2 RA
00:09 4.3 °F /  -15.4 °C 3.3 °F /  -15.9 °C 1016.5in /  34418.7hPa Calm     93% 0.0in /  0mm WeatherDisplay:10.37 W/m2 RA
00:14 4.3 °F /  -15.4 °C 3.2 °F /  -16 °C 1016.6in /  34422.1hPa Calm     93% 0.0in /  0mm WeatherDisplay:10.37 W/m2 CLR
00:19 4.2 °F /  -15.4 °C 3.1 °F /  -16.1 °C 1016.6in /  34422.1hPa Calm     93% 0.0in /  0mm WeatherDisplay:10.37 W/m2 CLR
00:24 4.1 °F /  -15.5 °C 3.0 °F /  -16.1 °C 1016.6in /  34422.1hPa Calm     93% 0.0in /  0mm WeatherDisplay:10.37 W/m2 CLR
00:29 4.0 °F /  -15.6 °C 2.9 °F /  -16.2 °C 1016.6in /  34422.1hPa Calm     93% 0.0in /  0mm WeatherDisplay:10.37 W/m2 CLR
00:34 3.9 °F /  -15.6 °C 2.9 °F /  -16.2 °C 1016.6in /  34422.1hPa Calm     93% 0.0in /  0mm WeatherDisplay:10.37 W/m2 CLR
00:39 3.8 °F /  -15.7 °C 2.8 °F /  -16.2 °C 1016.6in /  34422.1hPa Calm     93% 0.0in /  0mm WeatherDisplay:10.37 W/m2 CLR
00:44 3.8 °F /  -15.7 °C 2.7 °F /  -16.3 °C 1016.7in /  34425.5hPa Calm     93% 0.0in /  0mm WeatherDisplay:10.37 W/m2 CLR
00:49 3.7 °F /  -15.7 °C 2.7 °F /  -16.3 °C 1016.7in /  34425.5hPa Calm     93% 0.0in /  0mm WeatherDisplay:10.37 W/m2 CLR
00:54 3.6 °F /  -15.8 °C 2.6 °F /  -16.3 °C 1016.7in /  34425.5hPa Calm     93% 0.0in /  0mm WeatherDisplay:10.37 W/m2 CLR
00:59 3.6 °F /  -15.8 °C 2.6 °F /  -16.3 °C 1016.7in /  34425.5hPa Calm     93% 0.0in /  0mm WeatherDisplay:10.37 W/m2 CLR
01:04 3.4 °F /  -15.9 °C 2.4 °F /  -16.4 °C 1016.7in /  34425.5hPa Calm     93% 0.0in /  0mm WeatherDisplay:10.37 W/m2 CLR
01:09 3.4 °F /  -15.9 °C 2.4 °F /  -16.4 °C 1016.8in /  34428.8hPa Calm     93% 0.0in /  0mm WeatherDisplay:10.37 W/m2 CLR
01:14 3.3 °F /  -15.9 °C 2.3 °F /  -16.5 °C 1016.8in /  34428.8hPa Calm     93% 0.0in /  0mm WeatherDisplay:10.37 W/m2 CLR
01:19 3.3 °F /  -15.9 °C 2.3 °F /  -16.5 °C 1016.8in /  34428.8hPa Calm     93% 0.0in /  0mm WeatherDisplay:10.37 W/m2 CLR
01:24 3.2 °F /  -16 °C 2.2 °F /  -16.6 °C 1016.9in /  34432.2hPa Calm     93% 0.0in /  0mm WeatherDisplay:10.37 W/m2 CLR
01:29 3.2 °F /  -16 °C 2.2 °F /  -16.6 °C 1016.8in /  34428.8hPa Calm     93% 0.0in /  0mm WeatherDisplay:10.37 W/m2 CLR
01:34 3.2 °F /  -16 °C 2.2 °F /  -16.6 °C 1016.9in /  34432.2hPa Calm     93% 0.0in /  0mm WeatherDisplay:10.37 W/m2 CLR
01:39 3.1 °F /  -16.1 °C 2.1 °F /  -16.6 °C 1017.0in /  34435.6hPa Calm     93% 0.0in /  0mm WeatherDisplay:10.37 W/m2 CLR
01:44 3.0 °F /  -16.1 °C 2.0 °F /  -16.7 °C 1016.9in /  34432.2hPa Calm     93% 0.0in /  0mm WeatherDisplay:10.37 W/m2 CLR
01:49 2.9 °F /  -16.2 °C 1.9 °F /  -16.7 °C 1016.9in /  34432.2hPa Calm     93% 0.0in /  0mm WeatherDisplay:10.37 W/m2 CLR
01:54 2.9 °F /  -16.2 °C 1.9 °F /  -16.7 °C 1016.9in /  34432.2hPa Calm     93% 0.0in /  0mm WeatherDisplay:10.37 W/m2 CLR
01:59 2.8 °F /  -16.2 °C 1.8 °F /  -16.8 °C 1017.0in /  34435.6hPa Calm     93% 0.0in /  0mm WeatherDisplay:10.37 W/m2 CLR
02:04 2.8 °F /  -16.2 °C 1.8 °F /  -16.8 °C 1017.0in /  34435.6hPa Calm     93% 0.0in /  0mm WeatherDisplay:10.37 W/m2 CLR
02:09 2.8 °F /  -16.2 °C 1.8 °F /  -16.8 °C 1016.9in /  34432.2hPa Calm     93% 0.0in /  0mm WeatherDisplay:10.37 W/m2 CLR
02:14 2.8 °F /  -16.2 °C 1.8 °F /  -16.8 °C 1016.9in /  34432.2hPa Calm     93% 0.0in /  0mm WeatherDisplay:10.37 W/m2 CLR
02:19 2.7 °F /  -16.3 °C 1.7 °F /  -16.8 °C 1017.0in /  34435.6hPa Calm     93% 0.0in /  0mm WeatherDisplay:10.37 W/m2 CLR
02:24 2.7 °F /  -16.3 °C 1.7 °F /  -16.8 °C 1017.0in /  34435.6hPa Calm     93% 0.0in /  0mm WeatherDisplay:10.37 W/m2 CLR
02:29 2.7 °F /  -16.3 °C 1.7 °F /  -16.8 °C 1017.0in /  34435.6hPa Calm     93% 0.0in /  0mm WeatherDisplay:10.37 W/m2 CLR
02:34 2.7 °F /  -16.3 °C 1.7 °F /  -16.8 °C 1017.1in /  34439hPa Calm     93% 0.0in /  0mm WeatherDisplay:10.37 W/m2 CLR
02:39 2.6 °F /  -16.3 °C 1.6 °F /  -16.9 °C 1017.1in /  34439hPa Calm     93% 0.0in /  0mm WeatherDisplay:10.37 W/m2 CLR
02:44 2.6 °F /  -16.3 °C 1.6 °F /  -16.9 °C 1017.1in /  34439hPa Calm     93% 0.0in /  0mm WeatherDisplay:10.37 W/m2 CLR
02:49 2.6 °F /  -16.3 °C 1.6 °F /  -16.9 °C 1017.2in /  34442.4hPa Calm     93% 0.0in /  0mm WeatherDisplay:10.37 W/m2 CLR
02:54 2.5 °F /  -16.4 °C 1.5 °F /  -16.9 °C 1017.1in /  34439hPa Calm     93% 0.0in /  0mm WeatherDisplay:10.37 W/m2 CLR
02:59 2.4 °F /  -16.4 °C 1.4 °F /  -17 °C 1017.1in /  34439hPa Calm     93% 0.0in /  0mm WeatherDisplay:10.37 W/m2 CLR
03:04 2.4 °F /  -16.4 °C 1.4 °F /  -17 °C 1017.1in /  34439hPa Calm     93% 0.0in /  0mm WeatherDisplay:10.37 W/m2 CLR
03:09 2.3 °F /  -16.5 °C 1.3 °F /  -17.1 °C 1017.2in /  34442.4hPa Calm     93% 0.0in /  0mm WeatherDisplay:10.37 W/m2 CLR
03:14 2.3 °F /  -16.5 °C 1.3 °F /  -17.1 °C 1017.1in /  34439hPa Calm     93% 0.0in /  0mm WeatherDisplay:10.37 W/m2 CLR
03:19 2.2 °F /  -16.6 °C 1.2 °F /  -17.1 °C 1017.1in /  34439hPa Calm     93% 0.0in /  0mm WeatherDisplay:10.37 W/m2 CLR
03:24 2.2 °F /  -16.6 °C 1.2 °F /  -17.1 °C 1017.1in /  34439hPa Calm     93% 0.0in /  0mm WeatherDisplay:10.37 W/m2 CLR
03:29 2.1 °F /  -16.6 °C 1.1 °F /  -17.2 °C 1017.0in /  34435.6hPa Calm     93% 0.0in /  0mm WeatherDisplay:10.37 W/m2 CLR
03:34 2.0 °F /  -16.7 °C 1.0 °F /  -17.2 °C 1017.1in /  34439hPa Calm     93% 0.0in /  0mm WeatherDisplay:10.37 W/m2 CLR
03:39 1.9 °F /  -16.7 °C 0.9 °F /  -17.3 °C 1017.1in /  34439hPa Calm     93% 0.0in /  0mm WeatherDisplay:10.37 W/m2 CLR
03:44 1.9 °F /  -16.7 °C 0.9 °F /  -17.3 °C 1017.1in /  34439hPa Calm     93% 0.0in /  0mm WeatherDisplay:10.37 W/m2 CLR
03:49 1.9 °F /  -16.7 °C 0.9 °F /  -17.3 °C 1017.2in /  34442.4hPa Calm     93% 0.0in /  0mm WeatherDisplay:10.37 W/m2 CLR
03:54 1.8 °F /  -16.8 °C 0.8 °F /  -17.3 °C 1017.2in /  34442.4hPa Calm     93% 0.0in /  0mm WeatherDisplay:10.37 W/m2 CLR
03:59 1.8 °F /  -16.8 °C 0.8 °F /  -17.3 °C 1017.2in /  34442.4hPa Calm     93% 0.0in /  0mm WeatherDisplay:10.37 W/m2 CLR
04:04 1.8 °F /  -16.8 °C 0.8 °F /  -17.3 °C 1017.2in /  34442.4hPa Calm     93% 0.0in /  0mm WeatherDisplay:10.37 W/m2 CLR
04:09 1.8 °F /  -16.8 °C 0.8 °F /  -17.3 °C 1017.2in /  34442.4hPa Calm     93% 0.0in /  0mm WeatherDisplay:10.37 W/m2 CLR
04:14 1.7 °F /  -16.8 °C 0.7 °F /  -17.4 °C 1017.2in /  34442.4hPa Calm     93% 0.0in /  0mm WeatherDisplay:10.37 W/m2 CLR
04:19 1.7 °F /  -16.8 °C 0.7 °F /  -17.4 °C 1017.2in /  34442.4hPa Calm     93% 0.0in /  0mm WeatherDisplay:10.37 W/m2 CLR
04:24 1.7 °F /  -16.8 °C 0.7 °F /  -17.4 °C 1017.2in /  34442.4hPa Calm     93% 0.0in /  0mm WeatherDisplay:10.37 W/m2 CLR
04:29 1.7 °F /  -16.8 °C 0.7 °F /  -17.4 °C 1017.2in /  34442.4hPa Calm     93% 0.2in /  5.08mm WeatherDisplay:10.37 W/m2 RA
04:34 1.7 °F /  -16.8 °C 0.7 °F /  -17.4 °C 1017.2in /  34442.4hPa Calm     93% 0.2in /  5.08mm WeatherDisplay:10.37 W/m2 RA
04:39 1.7 °F /  -16.8 °C 0.7 °F /  -17.4 °C 1017.3in /  34445.8hPa Calm     93% 0.2in /  5.08mm WeatherDisplay:10.37 W/m2
04:44 1.6 °F /  -16.9 °C 0.6 °F /  -17.4 °C 1017.3in /  34445.8hPa Calm     93% 0.2in /  5.08mm WeatherDisplay:10.37 W/m2 CLR
04:49 1.6 °F /  -16.9 °C 0.6 °F /  -17.4 °C 1017.3in /  34445.8hPa Calm     93% 0.2in /  5.08mm WeatherDisplay:10.37 W/m2 CLR
04:54 1.6 °F /  -16.9 °C 0.6 °F /  -17.4 °C 1017.4in /  34449.2hPa Calm     93% 0.2in /  5.08mm WeatherDisplay:10.37 W/m2 CLR
04:59 1.7 °F /  -16.8 °C 0.7 °F /  -17.4 °C 1017.4in /  34449.2hPa Calm     93% 0.2in /  5.08mm WeatherDisplay:10.37 W/m2 CLR
05:04 1.7 °F /  -16.8 °C 0.7 °F /  -17.4 °C 1017.4in /  34449.2hPa Calm     93% 0.2in /  5.08mm WeatherDisplay:10.37 W/m2 CLR
05:09 1.7 °F /  -16.8 °C 0.7 °F /  -17.4 °C 1017.4in /  34449.2hPa Calm     93% 0.2in /  5.08mm WeatherDisplay:10.37 W/m2 CLR
05:14 1.7 °F /  -16.8 °C 0.7 °F /  -17.4 °C 1017.3in /  34445.8hPa Calm     93% 0.2in /  5.08mm WeatherDisplay:10.37 W/m2 CLR
05:19 1.8 °F /  -16.8 °C 0.8 °F /  -17.3 °C 1017.3in /  34445.8hPa Calm     93% 0.2in /  5.08mm WeatherDisplay:10.37 W/m2 CLR
05:24 1.9 °F /  -16.7 °C 0.9 °F /  -17.3 °C 1017.4in /  34449.2hPa Calm     93% 0.2in /  5.08mm WeatherDisplay:10.37 W/m2 CLR
05:29 1.9 °F /  -16.7 °C 0.9 °F /  -17.3 °C 1017.4in /  34449.2hPa Calm     93% 0.0in /  0mm WeatherDisplay:10.37 W/m2 CLR
05:34 1.9 °F /  -16.7 °C 0.9 °F /  -17.3 °C 1017.4in /  34449.2hPa Calm     93% 0.0in /  0mm WeatherDisplay:10.37 W/m2 CLR
05:39 1.9 °F /  -16.7 °C 0.9 °F /  -17.3 °C 1017.4in /  34449.2hPa Calm     93% 0.0in /  0mm WeatherDisplay:10.37 W/m2 CLR
05:44 2.0 °F /  -16.7 °C 1.0 °F /  -17.2 °C 1017.4in /  34449.2hPa Calm     93% 0.0in /  0mm WeatherDisplay:10.37 W/m2 CLR
05:49 2.1 °F /  -16.6 °C 1.1 °F /  -17.2 °C 1017.4in /  34449.2hPa Calm     93% 0.0in /  0mm WeatherDisplay:10.37 W/m2 CLR
05:54 2.1 °F /  -16.6 °C 1.1 °F /  -17.2 °C 1017.5in /  34452.6hPa Calm     93% 0.0in /  0mm WeatherDisplay:10.37 W/m2 CLR
05:59 2.1 °F /  -16.6 °C 1.1 °F /  -17.2 °C 1017.5in /  34452.6hPa Calm     93% 0.0in /  0mm WeatherDisplay:10.37 W/m2 CLR
06:04 2.1 °F /  -16.6 °C 1.1 °F /  -17.2 °C 1017.4in /  34449.2hPa Calm     93% 0.0in /  0mm WeatherDisplay:10.37 W/m2 CLR
06:09 2.1 °F /  -16.6 °C 1.1 °F /  -17.2 °C 1017.5in /  34452.6hPa Calm     93% 0.0in /  0mm WeatherDisplay:10.37 W/m2 CLR
06:14 2.1 °F /  -16.6 °C 1.1 °F /  -17.2 °C 1017.5in /  34452.6hPa Calm     93% 0.0in /  0mm WeatherDisplay:10.37 W/m2 CLR
06:19 2.0 °F /  -16.7 °C 1.0 °F /  -17.2 °C 1017.5in /  34452.6hPa Calm     93% 0.0in /  0mm WeatherDisplay:10.37 W/m2 CLR
06:24 2.0 °F /  -16.7 °C 1.0 °F /  -17.2 °C 1017.4in /  34449.2hPa Calm     93% 0.0in /  0mm WeatherDisplay:10.37 W/m2 CLR
06:29 2.0 °F /  -16.7 °C 1.0 °F /  -17.2 °C 1017.4in /  34449.2hPa Calm     93% 0.0in /  0mm WeatherDisplay:10.37 W/m2 CLR
06:34 1.9 °F /  -16.7 °C 0.9 °F /  -17.3 °C 1017.5in /  34452.6hPa Calm     93% 0.0in /  0mm WeatherDisplay:10.37 W/m2 CLR
06:39 1.9 °F /  -16.7 °C 0.9 °F /  -17.3 °C 1017.4in /  34449.2hPa Calm     93% 0.0in /  0mm WeatherDisplay:10.37 W/m2 CLR
06:44 1.9 °F /  -16.7 °C 0.9 °F /  -17.3 °C 1017.4in /  34449.2hPa Calm     93% 0.0in /  0mm WeatherDisplay:10.37 W/m2 CLR
06:49 1.9 °F /  -16.7 °C 0.9 °F /  -17.3 °C 1017.4in /  34449.2hPa Calm     93% 0.0in /  0mm WeatherDisplay:10.37 W/m2 CLR
06:54 1.9 °F /  -16.7 °C 0.9 °F /  -17.3 °C 1017.4in /  34449.2hPa Calm     93% 0.0in /  0mm WeatherDisplay:10.37 W/m2 CLR
06:59 1.9 °F /  -16.7 °C 0.9 °F /  -17.3 °C 1017.4in /  34449.2hPa Calm     93% 0.0in /  0mm WeatherDisplay:10.37 W/m2 CLR
07:04 1.9 °F /  -16.7 °C 0.9 °F /  -17.3 °C 1017.5in /  34452.6hPa Calm     93% 0.0in /  0mm WeatherDisplay:10.37 W/m2 CLR
07:09 1.9 °F /  -16.7 °C 1.0 °F /  -17.2 °C 1017.5in /  34452.6hPa Calm     94% 0.0in /  0mm WeatherDisplay:10.37 W/m2 CLR
07:14 1.9 °F /  -16.7 °C 1.0 °F /  -17.2 °C 1017.5in /  34452.6hPa Calm     94% 0.0in /  0mm WeatherDisplay:10.37 W/m2 CLR
07:19 1.9 °F /  -16.7 °C 1.0 °F /  -17.2 °C 1017.4in /  34449.2hPa Calm     94% 0.0in /  0mm WeatherDisplay:10.37 W/m2 CLR
07:24 1.8 °F /  -16.8 °C 0.9 °F /  -17.3 °C 1017.5in /  34452.6hPa Calm     94% 0.0in /  0mm WeatherDisplay:10.37 W/m2 CLR
07:29 1.8 °F /  -16.8 °C 0.9 °F /  -17.3 °C 1017.4in /  34449.2hPa Calm     94% 0.0in /  0mm WeatherDisplay:10.37 W/m2 CLR
07:34 1.8 °F /  -16.8 °C 0.9 °F /  -17.3 °C 1017.4in /  34449.2hPa Calm     94% 0.0in /  0mm WeatherDisplay:10.37 W/m2 CLR
07:39 1.8 °F /  -16.8 °C 0.8 °F /  -17.3 °C 1017.4in /  34449.2hPa Calm     93% 0.0in /  0mm WeatherDisplay:10.37 W/m2 CLR
07:44 1.8 °F /  -16.8 °C 0.8 °F /  -17.3 °C 1017.4in /  34449.2hPa Calm     93% 0.0in /  0mm WeatherDisplay:10.37 W/m2 CLR
07:49 1.8 °F /  -16.8 °C 0.8 °F /  -17.3 °C 1017.5in /  34452.6hPa Calm     93% 0.0in /  0mm WeatherDisplay:10.37 W/m2 CLR
07:54 1.8 °F /  -16.8 °C 0.8 °F /  -17.3 °C 1017.6in /  34455.9hPa Calm     93% 0.0in /  0mm WeatherDisplay:10.37 W/m2 CLR
07:59 1.8 °F /  -16.8 °C 0.8 °F /  -17.3 °C 1017.7in /  34459.3hPa Calm     93% 0.0in /  0mm WeatherDisplay:10.37 W/m2 CLR
08:04 1.8 °F /  -16.8 °C 0.8 °F /  -17.3 °C 1017.7in /  34459.3hPa Calm     93% 0.0in /  0mm WeatherDisplay:10.37 W/m2 CLR
08:09 1.8 °F /  -16.8 °C 0.8 °F /  -17.3 °C 1017.8in /  34462.7hPa Calm     93% 0.0in /  0mm WeatherDisplay:10.37 W/m2 CLR
08:14 1.8 °F /  -16.8 °C 0.8 °F /  -17.3 °C 1017.8in /  34462.7hPa Calm     93% 0.0in /  0mm WeatherDisplay:10.37 W/m2 CLR
08:19 1.8 °F /  -16.8 °C 0.8 °F /  -17.3 °C 1017.8in /  34462.7hPa Calm     93% 0.0in /  0mm WeatherDisplay:10.37 W/m2 CLR
08:24 1.8 °F /  -16.8 °C 0.8 °F /  -17.3 °C 1017.8in /  34462.7hPa Calm     93% 0.0in /  0mm WeatherDisplay:10.37 W/m2 CLR
08:29 1.8 °F /  -16.8 °C 0.8 °F /  -17.3 °C 1017.8in /  34462.7hPa Calm     93% 0.0in /  0mm WeatherDisplay:10.37 W/m2 CLR
08:34 1.9 °F /  -16.7 °C 0.9 °F /  -17.3 °C 1017.9in /  34466.1hPa Calm     93% 0.0in /  0mm WeatherDisplay:10.37 W/m2 CLR
08:39 1.9 °F /  -16.7 °C 1.1 °F /  -17.2 °C 1017.9in /  34466.1hPa Calm     94% 0.0in /  0mm WeatherDisplay:10.37 W/m2 CLR
08:44 2.0 °F /  -16.7 °C 1.1 °F /  -17.2 °C 1018.0in /  34469.5hPa Calm     94% 0.0in /  0mm WeatherDisplay:10.37 W/m2 CLR
08:49 2.1 °F /  -16.6 °C 1.2 °F /  -17.1 °C 1017.9in /  34466.1hPa Calm     94% 0.0in /  0mm WeatherDisplay:10.37 W/m2 CLR
08:54 2.2 °F /  -16.6 °C 1.3 °F /  -17.1 °C 1018.0in /  34469.5hPa Calm     94% 0.0in /  0mm WeatherDisplay:10.37 W/m2 CLR
08:59 2.3 °F /  -16.5 °C 1.4 °F /  -17 °C 1018.0in /  34469.5hPa Calm     94% 0.0in /  0mm WeatherDisplay:10.37 W/m2 CLR
09:04 2.4 °F /  -16.4 °C 1.6 °F /  -16.9 °C 1018.0in /  34469.5hPa Calm     94% 0.0in /  0mm WeatherDisplay:10.37 W/m2 CLR
09:09 2.5 °F /  -16.4 °C 1.6 °F /  -16.9 °C 1018.1in /  34472.9hPa Calm     94% 0.0in /  0mm WeatherDisplay:10.37 W/m2
09:14 2.6 °F /  -16.3 °C 1.7 °F /  -16.8 °C 1018.2in /  34476.3hPa Calm     94% 0.0in /  0mm WeatherDisplay:10.37 W/m2 CLR
09:19 2.7 °F /  -16.3 °C 1.8 °F /  -16.8 °C 1018.2in /  34476.3hPa Calm     94% 0.0in /  0mm WeatherDisplay:10.37 W/m2 CLR
09:24 2.7 °F /  -16.3 °C 1.8 °F /  -16.8 °C 1018.2in /  34476.3hPa Calm     94% 0.0in /  0mm WeatherDisplay:10.37 W/m2 CLR
09:29 2.8 °F /  -16.2 °C 1.9 °F /  -16.7 °C 1018.2in /  34476.3hPa Calm     94% 0.0in /  0mm WeatherDisplay:10.37 W/m2 CLR
09:34 2.8 °F /  -16.2 °C 1.9 °F /  -16.7 °C 1018.2in /  34476.3hPa Calm     94% 0.0in /  0mm WeatherDisplay:10.37 W/m2 CLR
09:39 2.8 °F /  -16.2 °C 1.9 °F /  -16.7 °C 1018.2in /  34476.3hPa Calm     94% 0.0in /  0mm WeatherDisplay:10.37 W/m2 CLR
09:44 2.9 °F /  -16.2 °C 2.0 °F /  -16.7 °C 1018.3in /  34479.6hPa Calm     94% 0.0in /  0mm WeatherDisplay:10.37 W/m2 CLR
09:49 2.9 °F /  -16.2 °C 2.1 °F /  -16.6 °C 1018.3in /  34479.6hPa Calm     94% 0.0in /  0mm WeatherDisplay:10.37 W/m2 CLR
09:54 2.9 °F /  -16.2 °C 2.1 °F /  -16.6 °C 1018.2in /  34476.3hPa Calm     94% 0.0in /  0mm WeatherDisplay:10.37 W/m2 CLR
09:59 3.0 °F /  -16.1 °C 2.1 °F /  -16.6 °C 1018.3in /  34479.6hPa Calm     94% 0.0in /  0mm WeatherDisplay:10.37 W/m2 CLR
10:04 3.1 °F /  -16.1 °C 2.2 °F /  -16.6 °C 1018.3in /  34479.6hPa Calm     94% 0.0in /  0mm WeatherDisplay:10.37 W/m2 CLR
10:09 3.3 °F /  -15.9 °C 2.4 °F /  -16.4 °C 1018.3in /  34479.6hPa Calm     94% 0.0in /  0mm WeatherDisplay:10.37 W/m2 CLR
10:14 3.4 °F /  -15.9 °C 2.6 °F /  -16.3 °C 1018.3in /  34479.6hPa Calm     94% 0.0in /  0mm WeatherDisplay:10.37 W/m2 CLR
10:19 3.6 °F /  -15.8 °C 2.7 °F /  -16.3 °C 1018.4in /  34483hPa Calm     94% 0.0in /  0mm WeatherDisplay:10.37 W/m2 CLR
10:24 3.8 °F /  -15.7 °C 2.9 °F /  -16.2 °C 1018.4in /  34483hPa Calm     94% 0.0in /  0mm WeatherDisplay:10.37 W/m2 CLR
10:29 4.1 °F /  -15.5 °C 3.2 °F /  -16 °C 1018.4in /  34483hPa Calm     94% 0.0in /  0mm WeatherDisplay:10.37 W/m2 CLR
10:34 4.2 °F /  -15.4 °C 3.3 °F /  -15.9 °C 1018.4in /  34483hPa Calm     94% 0.0in /  0mm WeatherDisplay:10.37 W/m2 CLR
10:39 4.6 °F /  -15.2 °C 3.7 °F /  -15.7 °C 1018.5in /  34486.4hPa Calm     94% 0.0in /  0mm WeatherDisplay:10.37 W/m2 CLR
10:44 4.8 °F /  -15.1 °C 3.9 °F /  -15.6 °C 1018.4in /  34483hPa Calm     94% 0.0in /  0mm WeatherDisplay:10.37 W/m2 CLR
10:49 4.9 °F /  -15.1 °C 4.1 °F /  -15.5 °C 1018.5in /  34486.4hPa Calm     94% 0.0in /  0mm WeatherDisplay:10.37 W/m2 CLR
10:54 5.3 °F /  -14.8 °C 4.4 °F /  -15.3 °C 1018.6in /  34489.8hPa Calm     94% 0.0in /  0mm WeatherDisplay:10.37 W/m2 CLR
10:59 5.4 °F /  -14.8 °C 4.6 °F /  -15.2 °C 1018.6in /  34489.8hPa Calm     94% 0.0in /  0mm WeatherDisplay:10.37 W/m2 CLR
11:04 5.7 °F /  -14.6 °C 4.8 °F /  -15.1 °C 1018.6in /  34489.8hPa Calm     94% 0.0in /  0mm WeatherDisplay:10.37 W/m2 CLR
11:09 5.9 °F /  -14.5 °C 5.0 °F /  -15 °C 1018.6in /  34489.8hPa Calm     94% 0.0in /  0mm WeatherDisplay:10.37 W/m2 CLR
11:14 6.0 °F /  -14.4 °C 5.1 °F /  -14.9 °C 1018.6in /  34489.8hPa Calm     94% 0.0in /  0mm WeatherDisplay:10.37 W/m2 CLR
11:19 6.1 °F /  -14.4 °C 5.2 °F /  -14.9 °C 1018.6in /  34489.8hPa Calm   1.6mph /  2.6km/h 94% 0.0in /  0mm WeatherDisplay:10.37 W/m2 CLR
11:24 6.2 °F /  -14.3 °C 5.3 °F /  -14.8 °C 1018.6in /  34489.8hPa SSW 1.1mph /  1.8km/h 5.6mph /  9km/h 94% 0.0in /  0mm WeatherDisplay:10.37 W/m2 CLR
11:29 6.3 °F /  -14.3 °C 5.4 °F /  -14.8 °C 1018.6in /  34489.8hPa Calm     94% 0.0in /  0mm WeatherDisplay:10.37 W/m2 CLR
11:34 6.4 °F /  -14.2 °C 5.5 °F /  -14.7 °C 1018.6in /  34489.8hPa Calm     94% 0.0in /  0mm WeatherDisplay:10.37 W/m2 CLR
11:39 6.4 °F /  -14.2 °C 5.6 °F /  -14.7 °C 1018.6in /  34489.8hPa Calm     94% 0.0in /  0mm WeatherDisplay:10.37 W/m2 CLR
11:44 6.7 °F /  -14.1 °C 5.8 °F /  -14.6 °C 1018.7in /  34493.2hPa Calm     94% 0.0in /  0mm WeatherDisplay:10.37 W/m2 CLR
11:49 6.8 °F /  -14 °C 5.9 °F /  -14.5 °C 1018.6in /  34489.8hPa Calm   5.6mph /  9km/h 94% 0.0in /  0mm WeatherDisplay:10.37 W/m2 CLR
11:54 7.3 °F /  -13.7 °C 6.4 °F /  -14.2 °C 1018.6in /  34489.8hPa Calm   1.6mph /  2.6km/h 94% 0.0in /  0mm WeatherDisplay:10.37 W/m2 CLR
11:59 8.1 °F /  -13.3 °C 7.2 °F /  -13.8 °C 1018.6in /  34489.8hPa Calm     94% 0.0in /  0mm WeatherDisplay:10.37 W/m2 CLR
12:04 8.3 °F /  -13.2 °C 7.4 °F /  -13.7 °C 1018.6in /  34489.8hPa WNW 1.9mph /  3.1km/h 5.6mph /  9km/h 94% 0.0in /  0mm WeatherDisplay:10.37 W/m2 CLR
12:09 8.4 °F /  -13.1 °C 7.2 °F /  -13.8 °C 1018.5in /  34486.4hPa Calm   5.6mph /  9km/h 92% 0.0in /  0mm WeatherDisplay:10.37 W/m2 CLR
12:14 8.3 °F /  -13.2 °C 6.9 °F /  -13.9 °C 1018.5in /  34486.4hPa NNW 2.6mph /  4.2km/h 8.0mph /  12.9km/h 91% 0.0in /  0mm WeatherDisplay:10.37 W/m2 CLR
12:19 8.4 °F /  -13.1 °C 6.7 °F /  -14.1 °C 1018.6in /  34489.8hPa Calm     89% 0.0in /  0mm WeatherDisplay:10.37 W/m2 CLR
12:24 8.6 °F /  -13 °C 6.7 °F /  -14.1 °C 1018.6in /  34489.8hPa Calm   3.7mph /  6km/h 88% 0.0in /  0mm WeatherDisplay:10.37 W/m2 CLR
12:29 8.9 °F /  -12.8 °C 6.5 °F /  -14.2 °C 1018.5in /  34486.4hPa Calm   7.4mph /  11.9km/h 85% 0.0in /  0mm WeatherDisplay:10.37 W/m2 CLR
12:34 8.8 °F /  -12.9 °C 6.4 °F /  -14.2 °C 1018.5in /  34486.4hPa NW 1.1mph /  1.8km/h 5.6mph /  9km/h 85% 0.0in /  0mm WeatherDisplay:10.37 W/m2 FEW
12:39 8.9 °F /  -12.8 °C 6.3 °F /  -14.3 °C 1018.5in /  34486.4hPa West 0.6mph /  1km/h 4.8mph /  7.7km/h 84% 0.0in /  0mm WeatherDisplay:10.37 W/m2 FEW
12:44 8.8 °F /  -12.9 °C 6.4 °F /  -14.2 °C 1018.4in /  34483hPa Calm     85% 0.0in /  0mm WeatherDisplay:10.37 W/m2 FEW
12:49 8.8 °F /  -12.9 °C 6.4 °F /  -14.2 °C 1018.4in /  34483hPa Calm   1.9mph /  3.1km/h 85% 0.0in /  0mm WeatherDisplay:10.37 W/m2 FEW
12:54 8.8 °F /  -12.9 °C 6.3 °F /  -14.3 °C 1018.4in /  34483hPa NW 1.0mph /  1.6km/h 3.7mph /  6km/h 84% 0.0in /  0mm WeatherDisplay:10.37 W/m2 FEW
12:58 8.9 °F /  -12.8 °C 6.4 °F /  -14.2 °C 1018.4in /  34483hPa WNW 0.2mph /  0.3km/h 9.7mph /  15.6km/h 84% 0.0in /  0mm WeatherDisplay:10.37 W/m2 FEW
13:04 9.2 °F /  -12.7 °C 6.1 °F /  -14.4 °C 1018.4in /  34483hPa WNW 4.2mph /  6.8km/h 9.7mph /  15.6km/h 81% 0.0in /  0mm WeatherDisplay:10.37 W/m2 FEW
13:09 9.3 °F /  -12.6 °C 6.7 °F /  -14.1 °C 1018.4in /  34483hPa North 0.2mph /  0.3km/h 6.4mph /  10.3km/h 84% 0.0in /  0mm WeatherDisplay:10.37 W/m2 FEW
13:14 9.2 °F /  -12.7 °C 5.9 °F /  -14.5 °C 1018.4in /  34483hPa West 4.0mph /  6.4km/h 11.1mph /  17.9km/h 80% 0.0in /  0mm WeatherDisplay:10.37 W/m2 FEW
13:19 9.1 °F /  -12.7 °C 6.2 °F /  -14.3 °C 1018.4in /  34483hPa West 0.3mph /  0.5km/h 5.6mph /  9km/h 82% 0.0in /  0mm WeatherDisplay:10.37 W/m2 FEW
13:24 9.3 °F /  -12.6 °C 6.2 °F /  -14.3 °C 1018.4in /  34483hPa NW 0.3mph /  0.5km/h 1.9mph /  3.1km/h 81% 0.0in /  0mm WeatherDisplay:10.37 W/m2 FEW
13:29 9.4 °F /  -12.6 °C 6.3 °F /  -14.3 °C 1018.4in /  34483hPa NW 0.2mph /  0.3km/h 1.9mph /  3.1km/h 81% 0.0in /  0mm WeatherDisplay:10.37 W/m2 FEW
13:34 9.3 °F /  -12.6 °C 6.1 °F /  -14.4 °C 1018.4in /  34483hPa Calm   1.9mph /  3.1km/h 80% 0.0in /  0mm WeatherDisplay:10.37 W/m2 FEW
13:39 9.2 °F /  -12.7 °C 6.5 °F /  -14.2 °C 1018.4in /  34483hPa Calm     83% 0.0in /  0mm WeatherDisplay:10.37 W/m2 FEW
13:44 9.1 °F /  -12.7 °C 6.2 °F /  -14.3 °C 1018.4in /  34483hPa NW 0.8mph /  1.3km/h 4.8mph /  7.7km/h 82% 0.0in /  0mm WeatherDisplay:10.37 W/m2 FEW
13:49 9.2 °F /  -12.7 °C 5.9 °F /  -14.5 °C 1018.4in /  34483hPa WNW 3.5mph /  5.6km/h 11.1mph /  17.9km/h 80% 0.0in /  0mm WeatherDisplay:10.37 W/m2 FEW
13:54 9.4 °F /  -12.6 °C 5.9 °F /  -14.5 °C 1018.4in /  34483hPa NW 1.8mph /  2.9km/h 5.6mph /  9km/h 79% 0.0in /  0mm WeatherDisplay:10.37 W/m2 FEW
13:59 9.5 °F /  -12.5 °C 5.8 °F /  -14.6 °C 1018.5in /  34486.4hPa Calm     78% 0.0in /  0mm WeatherDisplay:10.37 W/m2 FEW
14:04 9.5 °F /  -12.5 °C 5.7 °F /  -14.6 °C 1018.4in /  34483hPa WNW 5.5mph /  8.9km/h 8.0mph /  12.9km/h 77% 0.0in /  0mm WeatherDisplay:10.37 W/m2 FEW
14:09 9.4 °F /  -12.6 °C 5.8 °F /  -14.6 °C 1018.5in /  34486.4hPa NNW 4.7mph /  7.6km/h 9.7mph /  15.6km/h 78% 0.0in /  0mm WeatherDisplay:10.37 W/m2 FEW
14:14 9.6 °F /  -12.4 °C 5.6 °F /  -14.7 °C 1018.6in /  34489.8hPa NW 0.5mph /  0.8km/h 3.7mph /  6km/h 76% 0.0in /  0mm WeatherDisplay:10.37 W/m2 FEW
14:19 9.7 °F /  -12.4 °C 5.6 °F /  -14.7 °C 1018.6in /  34489.8hPa West 0.3mph /  0.5km/h 9.3mph /  15km/h 76% 0.0in /  0mm WeatherDisplay:10.37 W/m2 FEW
14:24 9.7 °F /  -12.4 °C 5.8 °F /  -14.6 °C 1018.5in /  34486.4hPa Calm     77% 0.0in /  0mm WeatherDisplay:10.37 W/m2 FEW
14:29 9.7 °F /  -12.4 °C 5.6 °F /  -14.7 °C 1018.5in /  34486.4hPa NNW 0.2mph /  0.3km/h 5.6mph /  9km/h 76% 0.0in /  0mm WeatherDisplay:10.37 W/m2 FEW
14:34 9.7 °F /  -12.4 °C 5.8 °F /  -14.6 °C 1018.5in /  34486.4hPa WSW 1.3mph /  2.1km/h 5.6mph /  9km/h 77% 0.0in /  0mm WeatherDisplay:10.37 W/m2 FEW
14:39 9.6 °F /  -12.4 °C 5.7 °F /  -14.6 °C 1018.5in /  34486.4hPa Calm   4.8mph /  7.7km/h 77% 0.0in /  0mm WeatherDisplay:10.37 W/m2 FEW
14:44 9.6 °F /  -12.4 °C 6.2 °F /  -14.3 °C 1018.6in /  34489.8hPa NW 0.2mph /  0.3km/h 4.8mph /  7.7km/h 79% 0.0in /  0mm WeatherDisplay:10.37 W/m2 FEW
14:49 9.7 °F /  -12.4 °C 5.8 °F /  -14.6 °C 1018.5in /  34486.4hPa Calm     77% 0.0in /  0mm WeatherDisplay:10.37 W/m2 FEW
14:54 9.6 °F /  -12.4 °C 5.9 °F /  -14.5 °C 1018.5in /  34486.4hPa WSW 0.3mph /  0.5km/h 5.6mph /  9km/h 78% 0.0in /  0mm WeatherDisplay:10.37 W/m2 FEW
14:59 9.6 °F /  -12.4 °C 5.9 °F /  -14.5 °C 1018.5in /  34486.4hPa West 1.3mph /  2.1km/h 4.8mph /  7.7km/h 78% 0.0in /  0mm WeatherDisplay:10.37 W/m2 FEW
15:04 9.7 °F /  -12.4 °C 5.6 °F /  -14.7 °C 1018.6in /  34489.8hPa West 1.1mph /  1.8km/h 4.8mph /  7.7km/h 76% 0.0in /  0mm WeatherDisplay:10.37 W/m2 FEW
15:09 9.7 °F /  -12.4 °C 5.7 °F /  -14.6 °C 1018.5in /  34486.4hPa West 2.3mph /  3.7km/h 9.3mph /  15km/h 76% 0.0in /  0mm WeatherDisplay:10.37 W/m2 FEW
15:14 9.8 °F /  -12.3 °C 5.4 °F /  -14.8 °C 1018.5in /  34486.4hPa West 0.6mph /  1km/h 5.6mph /  9km/h 74% 0.0in /  0mm WeatherDisplay:10.37 W/m2 FEW
15:19 9.7 °F /  -12.4 °C 6.1 °F /  -14.4 °C 1018.4in /  34483hPa North 2.9mph /  4.7km/h 14.8mph /  23.8km/h 78% 0.0in /  0mm WeatherDisplay:10.37 W/m2 FEW
15:24 9.8 °F /  -12.3 °C 5.4 °F /  -14.8 °C 1018.5in /  34486.4hPa WSW 2.3mph /  3.7km/h 11.3mph /  18.2km/h 74% 0.0in /  0mm WeatherDisplay:10.37 W/m2 FEW
15:29 9.8 °F /  -12.3 °C 5.2 °F /  -14.9 °C 1018.5in /  34486.4hPa NW 4.0mph /  6.4km/h 6.4mph /  10.3km/h 73% 0.0in /  0mm WeatherDisplay:10.37 W/m2 FEW
15:34 10.0 °F /  -12.2 °C 5.2 °F /  -14.9 °C 1018.4in /  34483hPa NNW 1.9mph /  3.1km/h 14.5mph /  23.3km/h 72% 0.0in /  0mm WeatherDisplay:10.37 W/m2 FEW
15:39 10.0 °F /  -12.2 °C 5.4 °F /  -14.8 °C 1018.5in /  34486.4hPa NW 0.2mph /  0.3km/h 1.6mph /  2.6km/h 73% 0.0in /  0mm WeatherDisplay:10.37 W/m2 FEW
15:44 10.0 °F /  -12.2 °C 5.4 °F /  -14.8 °C 1018.4in /  34483hPa Calm   7.4mph /  11.9km/h 73% 0.0in /  0mm WeatherDisplay:10.37 W/m2 FEW
15:49 9.9 °F /  -12.3 °C 5.3 °F /  -14.8 °C 1018.3in /  34479.6hPa Calm   5.6mph /  9km/h 73% 0.0in /  0mm WeatherDisplay:10.37 W/m2 FEW
15:54 10.0 °F /  -12.2 °C 5.4 °F /  -14.8 °C 1018.4in /  34483hPa Calm   1.6mph /  2.6km/h 73% 0.0in /  0mm WeatherDisplay:10.37 W/m2 FEW
15:59 9.9 °F /  -12.3 °C 5.7 °F /  -14.6 °C 1018.3in /  34479.6hPa Calm     75% 0.0in /  0mm WeatherDisplay:10.37 W/m2 FEW
16:04 9.7 °F /  -12.4 °C 5.5 °F /  -14.7 °C 1018.2in /  34476.3hPa Calm     75% 0.0in /  0mm WeatherDisplay:10.37 W/m2 FEW
16:09 9.7 °F /  -12.4 °C 5.6 °F /  -14.7 °C 1018.3in /  34479.6hPa Calm     76% 0.0in /  0mm WeatherDisplay:10.37 W/m2 FEW
16:14 9.6 °F /  -12.4 °C 5.9 °F /  -14.5 °C 1018.2in /  34476.3hPa North 1.6mph /  2.6km/h 8.0mph /  12.9km/h 78% 0.0in /  0mm WeatherDisplay:10.37 W/m2 FEW
16:19 9.4 °F /  -12.6 °C 5.7 °F /  -14.6 °C 1018.2in /  34476.3hPa Calm     78% 0.0in /  0mm WeatherDisplay:10.37 W/m2 FEW
16:24 9.3 °F /  -12.6 °C 5.9 °F /  -14.5 °C 1018.2in /  34476.3hPa Calm     79% 0.0in /  0mm WeatherDisplay:10.37 W/m2 FEW
16:29 9.2 °F /  -12.7 °C 5.9 °F /  -14.5 °C 1018.1in /  34472.9hPa Calm     80% 0.0in /  0mm WeatherDisplay:10.37 W/m2 FEW
16:34 9.0 °F /  -12.8 °C 5.7 °F /  -14.6 °C 1018.1in /  34472.9hPa Calm     80% 0.0in /  0mm WeatherDisplay:10.37 W/m2 FEW
16:39 8.8 °F /  -12.9 °C 5.6 °F /  -14.7 °C 1018.1in /  34472.9hPa WNW 1.8mph /  2.9km/h 6.4mph /  10.3km/h 80% 0.0in /  0mm WeatherDisplay:10.37 W/m2 FEW
16:44 9.0 °F /  -12.8 °C 5.4 °F /  -14.8 °C 1018.0in /  34469.5hPa WNW 0.6mph /  1km/h 5.6mph /  9km/h 78% 0.0in /  0mm WeatherDisplay:10.37 W/m2 FEW
16:49 8.9 °F /  -12.8 °C 5.3 °F /  -14.8 °C 1018.0in /  34469.5hPa WNW 0.2mph /  0.3km/h 3.7mph /  6km/h 78% 0.0in /  0mm WeatherDisplay:10.37 W/m2 FEW
16:54 8.9 °F /  -12.8 °C 4.9 °F /  -15.1 °C 1018.1in /  34472.9hPa West 1.6mph /  2.6km/h 5.6mph /  9km/h 76% 0.0in /  0mm WeatherDisplay:10.37 W/m2 FEW
16:59 9.0 °F /  -12.8 °C 5.6 °F /  -14.7 °C 1018.1in /  34472.9hPa Calm     79% 0.0in /  0mm WeatherDisplay:10.37 W/m2 FEW
17:04 9.0 °F /  -12.8 °C 5.2 °F /  -14.9 °C 1018.1in /  34472.9hPa Calm     77% 0.0in /  0mm WeatherDisplay:10.37 W/m2 FEW
17:09 8.8 °F /  -12.9 °C 5.4 °F /  -14.8 °C 1018.2in /  34476.3hPa WSW 0.3mph /  0.5km/h 1.9mph /  3.1km/h 79% 0.0in /  0mm WeatherDisplay:10.37 W/m2 FEW
17:14 8.6 °F /  -13 °C 5.2 °F /  -14.9 °C 1018.2in /  34476.3hPa WSW 0.8mph /  1.3km/h 3.7mph /  6km/h 79% 0.0in /  0mm WeatherDisplay:10.37 W/m2 FEW
17:19 8.6 °F /  -13 °C 5.1 °F /  -14.9 °C 1018.2in /  34476.3hPa Calm     79% 0.0in /  0mm WeatherDisplay:10.37 W/m2 FEW
17:24 8.5 °F /  -13.1 °C 4.9 °F /  -15.1 °C 1018.2in /  34476.3hPa Calm     78% 0.0in /  0mm WeatherDisplay:10.37 W/m2 FEW
17:29 8.4 °F /  -13.1 °C 4.9 °F /  -15.1 °C 1018.2in /  34476.3hPa NNW 1.9mph /  3.1km/h 8.0mph /  12.9km/h 79% 0.0in /  0mm WeatherDisplay:10.37 W/m2 FEW
17:34 8.3 °F /  -13.2 °C 4.8 °F /  -15.1 °C 1018.2in /  34476.3hPa Calm     79% 0.0in /  0mm WeatherDisplay:10.37 W/m2 FEW
17:39 8.2 °F /  -13.2 °C 4.9 °F /  -15.1 °C 1018.3in /  34479.6hPa Calm     80% 0.0in /  0mm WeatherDisplay:10.37 W/m2 FEW
17:44 7.9 °F /  -13.4 °C 4.7 °F /  -15.2 °C 1018.3in /  34479.6hPa Calm     80% 0.0in /  0mm WeatherDisplay:10.37 W/m2 FEW
17:49 7.8 °F /  -13.4 °C 4.7 °F /  -15.2 °C 1018.3in /  34479.6hPa Calm     81% 0.0in /  0mm WeatherDisplay:10.37 W/m2 FEW
17:54 7.5 °F /  -13.6 °C 4.6 °F /  -15.2 °C 1018.3in /  34479.6hPa Calm     82% 0.0in /  0mm WeatherDisplay:10.37 W/m2 FEW
Tuulensuunkaari, Veikkola, Suomi
Compliments of Weather Underground - 2.25 mb